sensor_id;sensor_type;location;lat;lon;timestamp;pressure;altitude;pressure_sealevel;temperature;humidity
57038;BME280;59942;49.304;8.256;2024-03-02T00:00:51;99202.38;;;5.33;92.21
57038;BME280;59942;49.304;8.256;2024-03-02T00:03:20;99194.16;;;5.25;93.44
57038;BME280;59942;49.304;8.256;2024-03-02T00:05:50;99198.69;;;5.18;95.01
57038;BME280;59942;49.304;8.256;2024-03-02T00:08:23;99197.97;;;5.14;96.35
57038;BME280;59942;49.304;8.256;2024-03-02T00:10:50;99195.69;;;5.07;97.23
57038;BME280;59942;49.304;8.256;2024-03-02T00:13:20;99204.59;;;4.76;99.52
57038;BME280;59942;49.304;8.256;2024-03-02T00:15:52;99199.25;;;4.80;94.13
57038;BME280;59942;49.304;8.256;2024-03-02T00:18:34;99199.81;;;4.89;97.77
57038;BME280;59942;49.304;8.256;2024-03-02T00:21:03;99191.16;;;4.91;95.58
57038;BME280;59942;49.304;8.256;2024-03-02T00:23:35;99202.50;;;4.85;98.87
57038;BME280;59942;49.304;8.256;2024-03-02T00:26:02;99208.16;;;4.72;100.00
57038;BME280;59942;49.304;8.256;2024-03-02T00:28:31;99198.56;;;4.77;95.01
57038;BME280;59942;49.304;8.256;2024-03-02T00:31:11;99142.81;;;4.33;96.14
57038;BME280;59942;49.304;8.256;2024-03-02T00:36:14;99218.91;;;4.58;99.45
57038;BME280;59942;49.304;8.256;2024-03-02T00:38:44;99220.59;;;4.59;100.00
57038;BME280;59942;49.304;8.256;2024-03-02T00:41:32;99230.25;;;4.52;100.00
57038;BME280;59942;49.304;8.256;2024-03-02T00:44:17;99219.50;;;4.42;100.00
57038;BME280;59942;49.304;8.256;2024-03-02T00:46:47;99222.13;;;4.41;100.00
57038;BME280;59942;49.304;8.256;2024-03-02T00:49:22;99153.97;;;4.08;97.77
57038;BME280;59942;49.304;8.256;2024-03-02T00:51:50;99215.53;;;4.57;100.00
57038;BME280;59942;49.304;8.256;2024-03-02T00:54:27;99213.84;;;4.56;100.00
57038;BME280;59942;49.304;8.256;2024-03-02T00:56:55;99214.81;;;4.54;100.00
57038;BME280;59942;49.304;8.256;2024-03-02T00:59:23;99202.81;;;4.54;100.00
57038;BME280;59942;49.304;8.256;2024-03-02T01:01:49;99210.69;;;4.49;99.68
57038;BME280;59942;49.304;8.256;2024-03-02T01:04:18;99200.53;;;4.46;95.99
57038;BME280;59942;49.304;8.256;2024-03-02T01:06:45;99205.59;;;4.48;96.09
57038;BME280;59942;49.304;8.256;2024-03-02T01:09:12;99211.34;;;4.55;96.24
57038;BME280;59942;49.304;8.256;2024-03-02T01:11:41;99205.19;;;4.59;100.00
57038;BME280;59942;49.304;8.256;2024-03-02T01:14:10;99206.19;;;4.55;97.03
57038;BME280;59942;49.304;8.256;2024-03-02T01:16:36;99209.56;;;4.57;96.88
57038;BME280;59942;49.304;8.256;2024-03-02T01:19:05;99205.50;;;4.51;92.39
57038;BME280;59942;49.304;8.256;2024-03-02T01:21:36;99203.03;;;4.48;90.65
57038;BME280;59942;49.304;8.256;2024-03-02T01:24:03;99209.78;;;4.50;89.48
57038;BME280;59942;49.304;8.256;2024-03-02T01:26:29;99202.88;;;4.52;89.37
57038;BME280;59942;49.304;8.256;2024-03-02T01:28:58;99202.06;;;4.50;89.90
57038;BME280;59942;49.304;8.256;2024-03-02T01:31:25;99204.25;;;4.61;93.11
57038;BME280;59942;49.304;8.256;2024-03-02T01:33:53;99190.91;;;4.51;92.93
57038;BME280;59942;49.304;8.256;2024-03-02T01:36:22;99201.31;;;4.48;90.71
57038;BME280;59942;49.304;8.256;2024-03-02T01:38:50;99197.34;;;4.40;89.15
57038;BME280;59942;49.304;8.256;2024-03-02T01:41:16;99189.88;;;4.33;89.45
57038;BME280;59942;49.304;8.256;2024-03-02T01:43:43;99192.63;;;4.27;97.73
57038;BME280;59942;49.304;8.256;2024-03-02T01:46:09;99199.72;;;4.21;99.64
57038;BME280;59942;49.304;8.256;2024-03-02T01:48:36;99201.38;;;4.22;95.98
57038;BME280;59942;49.304;8.256;2024-03-02T01:51:03;99200.94;;;4.10;92.08
57038;BME280;59942;49.304;8.256;2024-03-02T01:53:31;99201.25;;;4.26;96.63
57038;BME280;59942;49.304;8.256;2024-03-02T01:55:58;99193.91;;;4.15;91.68
57038;BME280;59942;49.304;8.256;2024-03-02T01:58:27;99202.91;;;4.27;97.60
57038;BME280;59942;49.304;8.256;2024-03-02T02:00:53;99198.28;;;4.13;100.00
57038;BME280;59942;49.304;8.256;2024-03-02T02:03:20;99195.53;;;4.18;96.78
57038;BME280;59942;49.304;8.256;2024-03-02T02:05:47;99187.31;;;4.08;92.66
57038;BME280;59942;49.304;8.256;2024-03-02T02:08:16;99179.41;;;4.14;91.74
57038;BME280;59942;49.304;8.256;2024-03-02T02:10:45;99177.28;;;4.02;100.00
57038;BME280;59942;49.304;8.256;2024-03-02T02:13:14;99186.56;;;4.06;96.83
57038;BME280;59942;49.304;8.256;2024-03-02T02:15:41;99177.94;;;4.07;97.63
57038;BME280;59942;49.304;8.256;2024-03-02T02:18:07;99178.16;;;4.01;100.00
57038;BME280;59942;49.304;8.256;2024-03-02T02:20:36;99182.31;;;4.05;100.00
57038;BME280;59942;49.304;8.256;2024-03-02T02:23:05;99176.19;;;3.84;100.00
57038;BME280;59942;49.304;8.256;2024-03-02T02:25:34;99172.63;;;3.63;100.00
57038;BME280;59942;49.304;8.256;2024-03-02T02:28:00;99177.22;;;3.78;96.91
57038;BME280;59942;49.304;8.256;2024-03-02T02:30:31;99164.31;;;3.81;93.29
57038;BME280;59942;49.304;8.256;2024-03-02T02:33:00;99165.69;;;3.92;94.98
57038;BME280;59942;49.304;8.256;2024-03-02T02:35:29;99168.06;;;3.96;92.62
57038;BME280;59942;49.304;8.256;2024-03-02T02:37:56;99164.69;;;3.96;92.46
57038;BME280;59942;49.304;8.256;2024-03-02T02:40:24;99169.13;;;3.91;98.80
57038;BME280;59942;49.304;8.256;2024-03-02T02:42:51;99164.56;;;3.99;97.74
57038;BME280;59942;49.304;8.256;2024-03-02T02:45:20;99129.94;;;3.62;100.00
57038;BME280;59942;49.304;8.256;2024-03-02T02:47:49;99148.31;;;3.75;98.61
57038;BME280;59942;49.304;8.256;2024-03-02T02:50:18;99130.69;;;3.65;93.94
57038;BME280;59942;49.304;8.256;2024-03-02T02:52:47;99146.31;;;3.83;93.95
57038;BME280;59942;49.304;8.256;2024-03-02T02:55:19;99140.34;;;3.82;91.54
57038;BME280;59942;49.304;8.256;2024-03-02T02:57:48;99140.22;;;3.86;91.00
57038;BME280;59942;49.304;8.256;2024-03-02T03:00:15;99146.25;;;3.85;90.33
57038;BME280;59942;49.304;8.256;2024-03-02T03:02:49;99143.66;;;3.86;92.43
57038;BME280;59942;49.304;8.256;2024-03-02T03:05:18;99147.16;;;3.83;91.82
57038;BME280;59942;49.304;8.256;2024-03-02T03:07:45;99141.25;;;3.81;98.33
57038;BME280;59942;49.304;8.256;2024-03-02T03:10:12;99136.41;;;3.72;100.00
57038;BME280;59942;49.304;8.256;2024-03-02T03:12:42;99138.31;;;3.67;100.00
57038;BME280;59942;49.304;8.256;2024-03-02T03:15:10;99141.59;;;3.71;100.00
57038;BME280;59942;49.304;8.256;2024-03-02T03:17:40;99143.44;;;3.67;100.00
57038;BME280;59942;49.304;8.256;2024-03-02T03:20:07;99139.94;;;3.44;100.00
57038;BME280;59942;49.304;8.256;2024-03-02T03:22:40;99153.44;;;3.23;100.00
57038;BME280;59942;49.304;8.256;2024-03-02T03:25:07;99138.75;;;3.01;100.00
57038;BME280;59942;49.304;8.256;2024-03-02T03:27:37;99140.44;;;3.02;100.00
57038;BME280;59942;49.304;8.256;2024-03-02T03:30:04;99131.13;;;3.00;100.00
57038;BME280;59942;49.304;8.256;2024-03-02T03:32:32;99146.63;;;2.95;100.00
57038;BME280;59942;49.304;8.256;2024-03-02T03:35:01;99139.16;;;3.16;100.00
57038;BME280;59942;49.304;8.256;2024-03-02T03:37:28;99144.38;;;3.12;100.00
57038;BME280;59942;49.304;8.256;2024-03-02T03:40:01;99139.69;;;3.25;98.79
57038;BME280;59942;49.304;8.256;2024-03-02T03:42:27;99136.31;;;3.23;96.38
57038;BME280;59942;49.304;8.256;2024-03-02T03:44:59;99141.72;;;3.42;98.30
57038;BME280;59942;49.304;8.256;2024-03-02T03:47:28;99138.44;;;3.12;100.00
57038;BME280;59942;49.304;8.256;2024-03-02T03:49:54;99139.81;;;3.22;100.00
57038;BME280;59942;49.304;8.256;2024-03-02T03:52:21;99141.72;;;2.87;100.00
57038;BME280;59942;49.304;8.256;2024-03-02T03:54:50;99139.78;;;2.95;100.00
57038;BME280;59942;49.304;8.256;2024-03-02T03:57:21;99142.63;;;3.13;100.00
57038;BME280;59942;49.304;8.256;2024-03-02T03:59:47;99146.63;;;3.22;100.00
57038;BME280;59942;49.304;8.256;2024-03-02T04:02:16;99144.88;;;3.24;95.65
57038;BME280;59942;49.304;8.256;2024-03-02T04:04:43;99152.41;;;3.28;96.34
57038;BME280;59942;49.304;8.256;2024-03-02T04:07:12;99160.09;;;3.28;95.84
57038;BME280;59942;49.304;8.256;2024-03-02T04:09:39;99158.56;;;3.23;97.26
57038;BME280;59942;49.304;8.256;2024-03-02T04:12:07;99150.47;;;3.08;97.12
57038;BME280;59942;49.304;8.256;2024-03-02T04:14:34;99161.84;;;3.00;99.23
57038;BME280;59942;49.304;8.256;2024-03-02T04:17:00;99155.03;;;2.99;99.24
57038;BME280;59942;49.304;8.256;2024-03-02T04:19:27;99150.88;;;2.38;100.00
57038;BME280;59942;49.304;8.256;2024-03-02T04:21:56;99156.44;;;2.52;100.00
57038;BME280;59942;49.304;8.256;2024-03-02T04:24:33;99155.13;;;2.67;98.02
57038;BME280;59942;49.304;8.256;2024-03-02T04:27:03;99162.59;;;2.75;99.07
57038;BME280;59942;49.304;8.256;2024-03-02T04:29:29;99163.13;;;2.86;98.31
57038;BME280;59942;49.304;8.256;2024-03-02T04:31:56;99155.59;;;2.52;100.00
57038;BME280;59942;49.304;8.256;2024-03-02T04:34:24;99156.88;;;2.37;100.00
57038;BME280;59942;49.304;8.256;2024-03-02T04:36:51;99157.22;;;2.24;100.00
57038;BME280;59942;49.304;8.256;2024-03-02T04:39:17;99164.06;;;2.24;100.00
57038;BME280;59942;49.304;8.256;2024-03-02T04:41:46;99162.66;;;2.43;100.00
57038;BME280;59942;49.304;8.256;2024-03-02T04:44:15;99167.75;;;2.43;100.00
57038;BME280;59942;49.304;8.256;2024-03-02T04:46:42;99164.63;;;2.34;100.00
57038;BME280;59942;49.304;8.256;2024-03-02T04:49:10;99172.91;;;2.12;100.00
57038;BME280;59942;49.304;8.256;2024-03-02T04:51:37;99167.81;;;2.42;100.00
57038;BME280;59942;49.304;8.256;2024-03-02T04:54:04;99139.09;;;2.32;97.34
57038;BME280;59942;49.304;8.256;2024-03-02T04:56:30;99171.59;;;2.58;98.07
57038;BME280;59942;49.304;8.256;2024-03-02T04:58:57;99163.63;;;2.69;94.45
57038;BME280;59942;49.304;8.256;2024-03-02T05:01:23;99169.25;;;2.81;96.51
57038;BME280;59942;49.304;8.256;2024-03-02T05:03:52;99158.34;;;2.74;92.76
57038;BME280;59942;49.304;8.256;2024-03-02T05:06:19;99165.88;;;2.78;93.32
57038;BME280;59942;49.304;8.256;2024-03-02T05:08:45;99171.19;;;2.72;100.00
57038;BME280;59942;49.304;8.256;2024-03-02T05:11:12;99171.56;;;2.60;100.00
57038;BME280;59942;49.304;8.256;2024-03-02T05:13:57;99175.44;;;2.43;100.00
57038;BME280;59942;49.304;8.256;2024-03-02T05:16:23;99171.47;;;2.33;100.00
57038;BME280;59942;49.304;8.256;2024-03-02T05:18:50;99171.13;;;2.46;100.00
57038;BME280;59942;49.304;8.256;2024-03-02T05:21:17;99169.53;;;2.41;100.00
57038;BME280;59942;49.304;8.256;2024-03-02T05:23:45;99172.88;;;2.43;100.00
57038;BME280;59942;49.304;8.256;2024-03-02T05:26:12;99168.00;;;2.64;99.52
57038;BME280;59942;49.304;8.256;2024-03-02T05:28:45;99172.88;;;2.73;95.39
57038;BME280;59942;49.304;8.256;2024-03-02T05:31:14;99165.94;;;2.77;98.17
57038;BME280;59942;49.304;8.256;2024-03-02T05:33:42;99180.13;;;2.59;100.00
57038;BME280;59942;49.304;8.256;2024-03-02T05:36:08;99188.69;;;2.58;100.00
57038;BME280;59942;49.304;8.256;2024-03-02T05:38:35;99185.84;;;2.67;99.67
57038;BME280;59942;49.304;8.256;2024-03-02T05:41:02;99191.53;;;2.77;100.00
57038;BME280;59942;49.304;8.256;2024-03-02T05:43:31;99187.34;;;2.74;100.00
57038;BME280;59942;49.304;8.256;2024-03-02T05:45:58;99182.25;;;2.45;100.00
57038;BME280;59942;49.304;8.256;2024-03-02T05:48:27;99159.00;;;2.52;100.00
57038;BME280;59942;49.304;8.256;2024-03-02T05:50:56;99186.03;;;2.61;100.00
57038;BME280;59942;49.304;8.256;2024-03-02T05:53:25;99181.63;;;2.36;100.00
57038;BME280;59942;49.304;8.256;2024-03-02T05:55:54;99182.38;;;2.40;100.00
57038;BME280;59942;49.304;8.256;2024-03-02T05:58:22;99181.81;;;2.58;100.00
57038;BME280;59942;49.304;8.256;2024-03-02T06:01:09;99187.34;;;2.74;100.00
57038;BME280;59942;49.304;8.256;2024-03-02T06:03:36;99181.03;;;2.86;100.00
57038;BME280;59942;49.304;8.256;2024-03-02T06:06:05;99188.16;;;2.76;100.00
57038;BME280;59942;49.304;8.256;2024-03-02T06:08:34;99186.38;;;2.78;100.00
57038;BME280;59942;49.304;8.256;2024-03-02T06:11:05;99196.06;;;2.67;100.00
57038;BME280;59942;49.304;8.256;2024-03-02T06:13:34;99185.41;;;2.83;100.00
57038;BME280;59942;49.304;8.256;2024-03-02T06:16:01;99189.59;;;2.85;100.00
57038;BME280;59942;49.304;8.256;2024-03-02T06:18:27;99191.31;;;2.85;100.00
57038;BME280;59942;49.304;8.256;2024-03-02T06:20:56;99192.75;;;2.93;100.00
57038;BME280;59942;49.304;8.256;2024-03-02T06:23:23;99193.69;;;2.91;98.93
57038;BME280;59942;49.304;8.256;2024-03-02T06:25:49;99193.41;;;3.00;99.60
57038;BME280;59942;49.304;8.256;2024-03-02T06:28:16;99197.59;;;3.03;100.00
57038;BME280;59942;49.304;8.256;2024-03-02T06:30:44;99205.22;;;3.04;100.00
57038;BME280;59942;49.304;8.256;2024-03-02T06:33:11;99210.81;;;2.89;100.00
57038;BME280;59942;49.304;8.256;2024-03-02T06:35:38;99200.28;;;2.70;100.00
57038;BME280;59942;49.304;8.256;2024-03-02T06:38:09;99211.00;;;2.83;99.43
57038;BME280;59942;49.304;8.256;2024-03-02T06:40:36;99196.19;;;2.92;97.99
57038;BME280;59942;49.304;8.256;2024-03-02T06:43:04;99203.69;;;2.99;97.07
57038;BME280;59942;49.304;8.256;2024-03-02T06:45:33;99203.75;;;2.97;94.63
57038;BME280;59942;49.304;8.256;2024-03-02T06:48:00;99211.38;;;2.99;94.24
57038;BME280;59942;49.304;8.256;2024-03-02T06:50:32;99192.66;;;2.97;93.66
57038;BME280;59942;49.304;8.256;2024-03-02T06:52:59;99191.34;;;3.11;95.06
57038;BME280;59942;49.304;8.256;2024-03-02T06:55:25;99207.28;;;3.21;100.00
57038;BME280;59942;49.304;8.256;2024-03-02T06:57:52;99206.44;;;3.21;100.00
57038;BME280;59942;49.304;8.256;2024-03-02T07:00:19;99205.84;;;3.12;100.00
57038;BME280;59942;49.304;8.256;2024-03-02T07:02:50;99174.50;;;3.04;100.00
57038;BME280;59942;49.304;8.256;2024-03-02T07:05:16;99217.47;;;3.23;100.00
57038;BME280;59942;49.304;8.256;2024-03-02T07:07:43;99221.84;;;3.19;98.60
57038;BME280;59942;49.304;8.256;2024-03-02T07:10:09;99216.19;;;3.36;97.14
57038;BME280;59942;49.304;8.256;2024-03-02T07:12:39;99216.03;;;3.41;100.00
57038;BME280;59942;49.304;8.256;2024-03-02T07:15:06;99215.59;;;3.55;100.00
57038;BME280;59942;49.304;8.256;2024-03-02T07:17:32;99224.44;;;3.46;100.00
57038;BME280;59942;49.304;8.256;2024-03-02T07:20:03;99219.66;;;3.62;100.00
57038;BME280;59942;49.304;8.256;2024-03-02T07:22:30;99186.28;;;3.63;100.00
57038;BME280;59942;49.304;8.256;2024-03-02T07:24:56;99224.84;;;3.86;99.27
57038;BME280;59942;49.304;8.256;2024-03-02T07:27:25;99222.41;;;4.08;100.00
57038;BME280;59942;49.304;8.256;2024-03-02T07:29:52;99228.38;;;4.33;100.00
57038;BME280;59942;49.304;8.256;2024-03-02T07:32:20;99236.84;;;4.35;100.00
57038;BME280;59942;49.304;8.256;2024-03-02T07:34:47;99237.16;;;4.26;100.00
57038;BME280;59942;49.304;8.256;2024-03-02T07:37:13;99246.75;;;4.45;100.00
57038;BME280;59942;49.304;8.256;2024-03-02T07:39:40;99214.97;;;4.25;100.00
57038;BME280;59942;49.304;8.256;2024-03-02T07:42:06;99234.44;;;4.31;100.00
57038;BME280;59942;49.304;8.256;2024-03-02T07:44:38;99243.31;;;4.46;100.00
57038;BME280;59942;49.304;8.256;2024-03-02T07:47:07;99242.88;;;4.58;100.00
57038;BME280;59942;49.304;8.256;2024-03-02T07:49:34;99240.81;;;4.68;100.00
57038;BME280;59942;49.304;8.256;2024-03-02T07:52:01;99239.53;;;4.80;98.96
57038;BME280;59942;49.304;8.256;2024-03-02T07:54:29;99233.34;;;4.85;100.00
57038;BME280;59942;49.304;8.256;2024-03-02T07:56:56;99235.84;;;5.09;100.00
57038;BME280;59942;49.304;8.256;2024-03-02T07:59:22;99233.59;;;5.24;100.00
57038;BME280;59942;49.304;8.256;2024-03-02T08:01:49;99236.88;;;5.27;100.00
57038;BME280;59942;49.304;8.256;2024-03-02T08:04:17;99237.03;;;5.22;100.00
57038;BME280;59942;49.304;8.256;2024-03-02T08:06:46;99237.28;;;5.61;100.00
57038;BME280;59942;49.304;8.256;2024-03-02T08:09:14;99239.66;;;5.65;100.00
57038;BME280;59942;49.304;8.256;2024-03-02T08:11:41;99243.13;;;5.64;100.00
57038;BME280;59942;49.304;8.256;2024-03-02T08:14:07;99237.81;;;5.89;100.00
57038;BME280;59942;49.304;8.256;2024-03-02T08:16:34;99232.84;;;6.07;100.00
57038;BME280;59942;49.304;8.256;2024-03-02T08:19:03;99231.72;;;6.33;100.00
57038;BME280;59942;49.304;8.256;2024-03-02T08:21:30;99232.06;;;6.25;100.00
57038;BME280;59942;49.304;8.256;2024-03-02T08:23:58;99225.13;;;6.66;100.00
57038;BME280;59942;49.304;8.256;2024-03-02T08:26:25;99228.19;;;6.55;100.00
57038;BME280;59942;49.304;8.256;2024-03-02T08:28:51;99230.91;;;6.71;100.00
57038;BME280;59942;49.304;8.256;2024-03-02T08:31:18;99221.22;;;6.57;100.00
57038;BME280;59942;49.304;8.256;2024-03-02T08:33:49;99232.16;;;7.00;100.00
57038;BME280;59942;49.304;8.256;2024-03-02T08:36:18;99230.28;;;6.66;100.00
57038;BME280;59942;49.304;8.256;2024-03-02T08:38:46;99233.47;;;6.90;100.00
57038;BME280;59942;49.304;8.256;2024-03-02T08:41:14;99230.28;;;7.04;98.58
57038;BME280;59942;49.304;8.256;2024-03-02T08:43:44;99236.69;;;7.14;96.79
57038;BME280;59942;49.304;8.256;2024-03-02T08:46:14;99229.25;;;7.62;94.19
57038;BME280;59942;49.304;8.256;2024-03-02T08:48:40;99226.34;;;7.68;93.39
57038;BME280;59942;49.304;8.256;2024-03-02T08:51:07;99225.22;;;7.56;96.72
57038;BME280;59942;49.304;8.256;2024-03-02T08:53:34;99230.47;;;7.90;90.78
57038;BME280;59942;49.304;8.256;2024-03-02T08:56:01;99220.91;;;7.74;96.49
57038;BME280;59942;49.304;8.256;2024-03-02T08:58:28;99224.88;;;7.81;94.31
57038;BME280;59942;49.304;8.256;2024-03-02T09:00:57;99228.03;;;8.38;90.88
57038;BME280;59942;49.304;8.256;2024-03-02T09:03:24;99221.13;;;8.72;87.24
57038;BME280;59942;49.304;8.256;2024-03-02T09:05:51;99216.88;;;8.37;89.71
57038;BME280;59942;49.304;8.256;2024-03-02T09:08:17;99219.28;;;8.58;91.81
57038;BME280;59942;49.304;8.256;2024-03-02T09:10:46;99218.88;;;8.65;90.86
57038;BME280;59942;49.304;8.256;2024-03-02T09:13:13;99206.31;;;8.91;89.33
57038;BME280;59942;49.304;8.256;2024-03-02T09:15:39;99214.66;;;8.13;89.33
57038;BME280;59942;49.304;8.256;2024-03-02T09:18:09;99191.31;;;7.81;89.08
57038;BME280;59942;49.304;8.256;2024-03-02T09:20:36;99212.66;;;8.69;95.87
57038;BME280;59942;49.304;8.256;2024-03-02T09:23:03;99221.13;;;8.38;86.28
57038;BME280;59942;49.304;8.256;2024-03-02T09:25:29;99211.97;;;8.32;87.44
57038;BME280;59942;49.304;8.256;2024-03-02T09:27:58;99219.53;;;9.63;92.30
57038;BME280;59942;49.304;8.256;2024-03-02T09:30:27;99211.16;;;10.19;83.37
57038;BME280;59942;49.304;8.256;2024-03-02T09:32:58;99216.00;;;9.50;82.32
57038;BME280;59942;49.304;8.256;2024-03-02T09:35:28;99209.06;;;9.81;79.89
57038;BME280;59942;49.304;8.256;2024-03-02T09:37:55;99206.69;;;9.62;78.07
57038;BME280;59942;49.304;8.256;2024-03-02T09:40:22;99205.06;;;10.63;86.50
57038;BME280;59942;49.304;8.256;2024-03-02T09:42:51;99207.88;;;10.87;81.72
57038;BME280;59942;49.304;8.256;2024-03-02T09:45:23;99209.91;;;10.97;85.53
57038;BME280;59942;49.304;8.256;2024-03-02T09:47:51;99217.59;;;10.98;82.07
57038;BME280;59942;49.304;8.256;2024-03-02T09:50:19;99205.78;;;10.65;76.85
57038;BME280;59942;49.304;8.256;2024-03-02T09:52:49;99204.03;;;10.37;75.79
57038;BME280;59942;49.304;8.256;2024-03-02T09:55:17;99205.97;;;10.76;81.91
57038;BME280;59942;49.304;8.256;2024-03-02T09:57:45;99208.81;;;10.86;84.92
57038;BME280;59942;49.304;8.256;2024-03-02T10:00:12;99212.69;;;10.93;79.69
57038;BME280;59942;49.304;8.256;2024-03-02T10:02:43;99202.09;;;10.26;75.79
57038;BME280;59942;49.304;8.256;2024-03-02T10:05:12;99199.72;;;10.52;77.42
57038;BME280;59942;49.304;8.256;2024-03-02T10:07:39;99192.91;;;10.78;75.18
57038;BME280;59942;49.304;8.256;2024-03-02T10:10:17;99198.47;;;10.86;74.13
57038;BME280;59942;49.304;8.256;2024-03-02T10:12:44;99197.03;;;10.39;81.88
57038;BME280;59942;49.304;8.256;2024-03-02T10:15:10;99201.84;;;11.28;77.54
57038;BME280;59942;49.304;8.256;2024-03-02T10:17:39;99199.03;;;11.72;76.74
57038;BME280;59942;49.304;8.256;2024-03-02T10:20:24;99184.03;;;11.09;77.44
57038;BME280;59942;49.304;8.256;2024-03-02T10:22:51;99193.19;;;11.68;73.88
57038;BME280;59942;49.304;8.256;2024-03-02T10:25:33;99200.88;;;11.57;80.63
57038;BME280;59942;49.304;8.256;2024-03-02T10:28:16;99193.69;;;12.13;83.50
57038;BME280;59942;49.304;8.256;2024-03-02T10:30:47;99196.16;;;11.89;73.91
57038;BME280;59942;49.304;8.256;2024-03-02T10:33:20;99191.22;;;11.59;77.20
57038;BME280;59942;49.304;8.256;2024-03-02T10:35:50;99193.91;;;12.10;76.31
57038;BME280;59942;49.304;8.256;2024-03-02T10:38:19;99191.81;;;12.28;64.86
57038;BME280;59942;49.304;8.256;2024-03-02T10:40:48;99191.41;;;11.96;63.35
57038;BME280;59942;49.304;8.256;2024-03-02T10:43:18;99178.66;;;11.78;62.10
57038;BME280;59942;49.304;8.256;2024-03-02T10:45:49;99169.28;;;12.66;63.29
57038;BME280;59942;49.304;8.256;2024-03-02T10:48:17;99173.38;;;13.30;71.71
57038;BME280;59942;49.304;8.256;2024-03-02T10:50:46;99161.56;;;12.77;59.61
57038;BME280;59942;49.304;8.256;2024-03-02T10:53:13;99161.28;;;13.42;59.11
57038;BME280;59942;49.304;8.256;2024-03-02T10:55:39;99161.09;;;12.83;65.89
57038;BME280;59942;49.304;8.256;2024-03-02T10:58:14;99154.31;;;12.94;58.27
57038;BME280;59942;49.304;8.256;2024-03-02T11:00:43;99159.84;;;13.13;58.21
57038;BME280;59942;49.304;8.256;2024-03-02T11:03:11;99152.41;;;13.91;63.29
57038;BME280;59942;49.304;8.256;2024-03-02T11:05:40;99138.69;;;14.23;71.39
57038;BME280;59942;49.304;8.256;2024-03-02T11:08:14;99142.22;;;14.22;60.33
57038;BME280;59942;49.304;8.256;2024-03-02T11:10:58;99132.50;;;14.35;59.28
57038;BME280;59942;49.304;8.256;2024-03-02T11:13:32;99135.78;;;15.15;68.55
57038;BME280;59942;49.304;8.256;2024-03-02T11:16:14;99133.94;;;15.27;67.01
57038;BME280;59942;49.304;8.256;2024-03-02T11:18:43;99131.91;;;15.52;66.36
57038;BME280;59942;49.304;8.256;2024-03-02T11:21:10;99131.31;;;15.69;49.81
57038;BME280;59942;49.304;8.256;2024-03-02T11:23:40;99127.50;;;15.31;59.45
57038;BME280;59942;49.304;8.256;2024-03-02T11:26:22;99136.34;;;14.86;59.96
57038;BME280;59942;49.304;8.256;2024-03-02T11:28:56;99131.81;;;14.88;57.26
57038;BME280;59942;49.304;8.256;2024-03-02T11:31:58;99123.97;;;14.11;53.12
57038;BME280;59942;49.304;8.256;2024-03-02T11:34:33;99123.13;;;14.44;63.29
57038;BME280;59942;49.304;8.256;2024-03-02T11:37:03;99122.28;;;14.44;67.06
57038;BME280;59942;49.304;8.256;2024-03-02T11:39:31;99116.25;;;13.86;57.44
57038;BME280;59942;49.304;8.256;2024-03-02T11:42:00;99116.03;;;14.01;66.73
57038;BME280;59942;49.304;8.256;2024-03-02T11:44:27;99110.00;;;13.66;56.24
57038;BME280;59942;49.304;8.256;2024-03-02T11:47:00;99103.38;;;14.19;69.93
57038;BME280;59942;49.304;8.256;2024-03-02T11:49:44;99073.31;;;12.98;55.96
57038;BME280;59942;49.304;8.256;2024-03-02T11:52:14;99099.06;;;13.61;73.40
57038;BME280;59942;49.304;8.256;2024-03-02T11:54:45;99076.06;;;12.73;57.70
57038;BME280;59942;49.304;8.256;2024-03-02T11:57:19;99092.88;;;13.40;56.07
57038;BME280;59942;49.304;8.256;2024-03-02T11:59:47;99096.97;;;13.66;65.67
57038;BME280;59942;49.304;8.256;2024-03-02T12:02:22;99088.25;;;13.43;55.07
57038;BME280;59942;49.304;8.256;2024-03-02T12:04:51;99084.75;;;13.67;60.13
57038;BME280;59942;49.304;8.256;2024-03-02T12:07:24;99079.88;;;13.73;55.83
57038;BME280;59942;49.304;8.256;2024-03-02T12:10:00;99078.28;;;14.62;66.13
57038;BME280;59942;49.304;8.256;2024-03-02T12:12:32;99073.28;;;13.92;62.80
57038;BME280;59942;49.304;8.256;2024-03-02T12:14:58;99070.00;;;13.32;56.63
57038;BME280;59942;49.304;8.256;2024-03-02T12:17:27;99068.53;;;14.75;52.61
57038;BME280;59942;49.304;8.256;2024-03-02T12:19:55;99073.16;;;15.46;60.90
57038;BME280;59942;49.304;8.256;2024-03-02T12:22:22;99063.81;;;14.69;56.71
57038;BME280;59942;49.304;8.256;2024-03-02T12:24:48;99058.47;;;15.76;49.34
57038;BME280;59942;49.304;8.256;2024-03-02T12:27:15;99053.50;;;16.04;54.89
57038;BME280;59942;49.304;8.256;2024-03-02T12:29:48;99055.28;;;16.93;60.48
57038;BME280;59942;49.304;8.256;2024-03-02T12:32:17;99042.78;;;16.07;46.95
57038;BME280;59942;49.304;8.256;2024-03-02T12:34:50;99037.25;;;15.90;56.38
57038;BME280;59942;49.304;8.256;2024-03-02T12:37:16;99042.69;;;15.56;59.09
57038;BME280;59942;49.304;8.256;2024-03-02T12:39:48;99034.75;;;16.59;53.35
57038;BME280;59942;49.304;8.256;2024-03-02T12:42:17;99033.91;;;15.88;59.34
57038;BME280;59942;49.304;8.256;2024-03-02T12:44:43;99036.44;;;17.09;52.44
57038;BME280;59942;49.304;8.256;2024-03-02T12:47:10;99028.97;;;17.04;54.58
57038;BME280;59942;49.304;8.256;2024-03-02T12:49:41;99037.44;;;17.55;50.80
57038;BME280;59942;49.304;8.256;2024-03-02T12:52:13;99027.13;;;17.44;51.96
57038;BME280;59942;49.304;8.256;2024-03-02T12:54:39;99025.81;;;18.23;48.60
57038;BME280;59942;49.304;8.256;2024-03-02T12:57:06;99012.59;;;18.15;53.14
57038;BME280;59942;49.304;8.256;2024-03-02T12:59:33;99021.53;;;18.40;50.36
57038;BME280;59942;49.304;8.256;2024-03-02T13:01:59;99013.72;;;17.47;58.04
57038;BME280;59942;49.304;8.256;2024-03-02T13:04:28;99007.88;;;17.15;47.95
57038;BME280;59942;49.304;8.256;2024-03-02T13:06:57;99011.22;;;16.69;50.66
57038;BME280;59942;49.304;8.256;2024-03-02T13:09:27;98955.13;;;16.03;46.42
57038;BME280;59942;49.304;8.256;2024-03-02T13:11:53;99011.31;;;16.87;45.52
57038;BME280;59942;49.304;8.256;2024-03-02T13:14:22;99005.28;;;16.86;48.44
57038;BME280;59942;49.304;8.256;2024-03-02T13:16:53;99006.06;;;14.94;48.46